WXM80 ListenWXM80 Stop

You find our weather info also at:

UK Metoffice

WeatherCloud

Weather Underground

Northeastern Weather Network

AWEKAS

Citizen Weather Observer Program (CWOP)

HAMweather, WeatherForYou, PWS Weather


Weather Underground History page Text

Daily Summary for December 16, 2016 Units:  English    Metric   Both
« Previous Day
Next Day »
Daily Weekly Monthly Yearly Custom
  High: Low: Average:
Temperature: TemperatureF °F 19.1 °F 23 °F
Dew Point: DewpointF °F 6.4 °F 10.7 °F
Humidity: Humidity % 51 % 59 %
Wind Speed: WindSpeedMPH mph 0.0 mph 4.4 mph
Wind Gust: WindSpeedGustMPH mph - -
Wind:- - WSW
Pressure: PressureIn in 30.11 in -
Precipitation: 0.00 in    
Historical Graphs
 
 
Tabular Data for December 16, 2016
Time Temperature Dew Point Pressure Wind Wind Speed Wind Gust Humidity Rainfall Rate (Hourly)
TemperatureF °F DewpointF °F PressureIn in Calm     Humidity % HourlyPrecipIn in
00:05 21.3 °F 6.4 °F 30.11 in WSW 12.7 mph 25.3 mph 52 % 0.00 in
00:10 21.3 °F 7.6 °F 30.11 in SW 10.7 mph 19.6 mph 55 % 0.00 in
00:15 21.2 °F 6.7 °F 30.11 in WNW 9.5 mph 20.7 mph 53 % 0.00 in
00:20 21.2 °F 7.1 °F 30.12 in West 7.3 mph 10.4 mph 54 % 0.00 in
00:25 21.2 °F 6.7 °F 30.12 in WSW 8.7 mph 21.9 mph 53 % 0.00 in
00:30 21.1 °F 7.0 °F 30.12 in SW 13.0 mph 20.7 mph 54 % 0.00 in
00:35 21.1 °F 7.4 °F 30.12 in WSW 13.0 mph 26.5 mph 55 % 0.00 in
00:40 21.1 °F 7.4 °F 30.12 in SW 8.1 mph 17.3 mph 55 % 0.00 in
00:45 21.1 °F 7.4 °F 30.12 in West 7.6 mph 17.3 mph 55 % 0.00 in
00:51 21.1 °F 7.8 °F 30.13 in WNW 12.0 mph 19.6 mph 56 % 0.00 in
00:56 21.0 °F 7.3 °F 30.13 in SSE 9.6 mph 16.1 mph 55 % 0.00 in
01:01 21.0 °F 7.7 °F 30.13 in NW 10.1 mph 15.0 mph 56 % 0.00 in
01:06 20.9 °F 6.8 °F 30.14 in SW 7.9 mph 20.7 mph 54 % 0.00 in
01:11 20.9 °F 7.2 °F 30.14 in NW 10.5 mph 18.4 mph 55 % 0.00 in
01:12 20.9 °F 7.2 °F 30.15 in WSW 11.4 mph 19.6 mph 55 % 0.00 in
01:17 20.9 °F 7.6 °F 30.15 in WNW 8.2 mph 15.0 mph 56 % 0.00 in
01:22 20.9 °F 7.6 °F 30.15 in West 10.5 mph 20.7 mph 56 % 0.00 in
01:27 20.8 °F 7.9 °F 30.15 in WNW 10.0 mph 17.3 mph 57 % 0.00 in
01:32 20.8 °F 7.9 °F 30.15 in WNW 11.3 mph 13.8 mph 57 % 0.00 in
01:37 20.8 °F 7.9 °F 30.16 in WSW 5.8 mph 13.0 mph 57 % 0.00 in
01:43 20.7 °F 7.9 °F 30.15 in SW 11.6 mph 16.1 mph 57 % 0.00 in
01:48 20.7 °F 8.2 °F 30.16 in West 8.3 mph 17.0 mph 58 % 0.00 in
01:53 20.7 °F 8.2 °F 30.17 in WSW 12.1 mph 16.0 mph 58 % 0.00 in
01:58 20.7 °F 7.9 °F 30.17 in West 5.8 mph 16.1 mph 57 % 0.00 in
02:03 20.7 °F 7.9 °F 30.17 in West 6.3 mph 16.1 mph 57 % 0.00 in
02:08 20.6 °F 8.1 °F 30.17 in West 8.4 mph 12.7 mph 58 % 0.00 in
02:13 20.7 °F 8.6 °F 30.18 in WSW 5.5 mph 13.8 mph 59 % 0.00 in
02:18 20.7 °F 9.0 °F 30.18 in WSW 6.8 mph 16.1 mph 60 % 0.00 in
02:23 20.7 °F 8.6 °F 30.19 in WNW 5.5 mph 13.8 mph 59 % 0.00 in
02:28 20.7 °F 9.0 °F 30.19 in WSW 11.0 mph 20.7 mph 60 % 0.00 in
02:34 20.7 °F 8.6 °F 30.19 in West 4.0 mph 11.5 mph 59 % 0.00 in
02:39 20.6 °F 8.5 °F 30.19 in West 8.7 mph 16.1 mph 59 % 0.00 in
02:44 20.6 °F 8.5 °F 30.20 in West 8.8 mph 16.1 mph 59 % 0.00 in
02:49 20.6 °F 8.5 °F 30.20 in WSW 10.4 mph 16.1 mph 59 % 0.00 in
02:54 20.5 °F 8.8 °F 30.20 in WNW 9.3 mph 18.4 mph 60 % 0.00 in
02:59 20.6 °F 9.3 °F 30.20 in West 9.0 mph 18.4 mph 61 % 0.00 in
03:04 20.6 °F 9.3 °F 30.20 in WSW 6.0 mph 15.0 mph 61 % 0.00 in
03:11 20.6 °F 8.9 °F 30.20 in WNW 14.8 mph 25.3 mph 60 % 0.00 in
03:16 20.6 °F 8.9 °F 30.21 in NNW 9.0 mph 13.8 mph 60 % 0.00 in
03:21 20.6 °F 9.3 °F 30.21 in WNW 6.2 mph 17.3 mph 61 % 0.00 in
03:26 20.6 °F 9.3 °F 30.21 in West 8.8 mph 14.0 mph 61 % 0.00 in
03:31 20.6 °F 8.9 °F 30.21 in WNW 7.2 mph 19.6 mph 60 % 0.00 in
03:37 20.6 °F 8.9 °F 30.22 in WNW 11.2 mph 18.4 mph 60 % 0.00 in
03:42 20.6 °F 9.3 °F 30.22 in West 4.3 mph 12.7 mph 61 % 0.00 in
03:47 20.6 °F 9.6 °F 30.22 in WNW 6.5 mph 16.1 mph 62 % 0.00 in
03:52 20.5 °F 9.5 °F 30.23 in West 1.5 mph 4.6 mph 62 % 0.00 in
03:57 20.5 °F 9.5 °F 30.23 in WNW 6.0 mph 15.0 mph 62 % 0.00 in
04:02 20.5 °F 9.9 °F 30.23 in WSW 6.0 mph 13.0 mph 63 % 0.00 in
04:07 20.5 °F 9.9 °F 30.23 in WNW 7.5 mph 9.2 mph 63 % 0.00 in
04:12 20.5 °F 9.9 °F 30.24 in WSW 9.9 mph 15.0 mph 63 % 0.00 in
04:17 20.5 °F 9.9 °F 30.23 in SW 6.8 mph 11.5 mph 63 % 0.00 in
04:22 20.4 °F 10.1 °F 30.24 in WNW 3.0 mph 8.1 mph 64 % 0.00 in
04:27 20.4 °F 9.8 °F 30.24 in WSW 7.3 mph 15.0 mph 63 % 0.00 in
04:33 20.4 °F 9.4 °F 30.24 in NW 8.3 mph 13.8 mph 62 % 0.00 in
04:38 20.3 °F 9.3 °F 30.24 in WNW 5.4 mph 10.4 mph 62 % 0.00 in
04:43 20.2 °F 9.6 °F 30.25 in WNW 4.9 mph 11.5 mph 63 % 0.00 in
04:48 20.2 °F 9.6 °F 30.25 in WNW 5.3 mph 9.2 mph 63 % 0.00 in
04:53 20.2 °F 9.6 °F 30.26 in West 6.9 mph 13.8 mph 63 % 0.00 in
04:58 20.1 °F 9.5 °F 30.26 in West 8.4 mph 11.5 mph 63 % 0.00 in
05:03 20.1 °F 9.9 °F 30.27 in WSW 5.4 mph 13.8 mph 64 % 0.00 in
05:08 20.1 °F 9.5 °F 30.26 in WSW 7.0 mph 9.0 mph 63 % 0.00 in
05:13 20.0 °F 9.4 °F 30.27 in WSW 6.1 mph 13.0 mph 63 % 0.00 in
05:18 20.0 °F 9.1 °F 30.27 in West 10.9 mph 16.1 mph 62 % 0.00 in
05:23 20.0 °F 9.4 °F 30.28 in West 7.2 mph 11.5 mph 63 % 0.00 in
05:28 20.0 °F 9.8 °F 30.28 in West 7.3 mph 11.5 mph 64 % 0.00 in
05:34 19.9 °F 9.3 °F 30.28 in SSW 6.4 mph 11.5 mph 63 % 0.00 in
05:39 19.9 °F 9.3 °F 30.28 in WNW 8.1 mph 12.7 mph 63 % 0.00 in
05:44 19.9 °F 9.3 °F 30.28 in West 11.0 mph 11.5 mph 63 % 0.00 in
05:49 19.9 °F 9.3 °F 30.29 in WNW 5.2 mph 11.5 mph 63 % 0.00 in
05:54 19.8 °F 9.2 °F 30.29 in West 7.8 mph 13.8 mph 63 % 0.00 in
05:59 19.8 °F 9.2 °F 30.30 in West 4.8 mph 10.4 mph 63 % 0.00 in
06:04 19.8 °F 9.6 °F 30.30 in WSW 7.3 mph 11.5 mph 64 % 0.00 in
06:09 19.8 °F 9.6 °F 30.30 in West 5.2 mph 10.4 mph 64 % 0.00 in
06:14 19.8 °F 9.6 °F 30.30 in West 3.8 mph 11.5 mph 64 % 0.00 in
06:19 19.8 °F 9.6 °F 30.30 in West 5.3 mph 12.7 mph 64 % 0.00 in
06:24 19.7 °F 9.5 °F 30.30 in West 9.0 mph 14.0 mph 64 % 0.00 in
06:29 19.6 °F 9.4 °F 30.31 in West 8.0 mph 13.0 mph 64 % 0.00 in
06:34 19.6 °F 9.7 °F 30.31 in West 6.0 mph 12.0 mph 65 % 0.00 in
06:39 19.5 °F 9.6 °F 30.31 in West 7.0 mph 12.0 mph 65 % 0.00 in
06:44 19.5 °F 9.6 °F 30.32 in West 8.0 mph 16.0 mph 65 % 0.00 in
06:49 19.4 °F 9.5 °F 30.32 in WNW 3.0 mph 13.0 mph 65 % 0.00 in
06:54 19.4 °F 9.9 °F 30.32 in WNW 6.0 mph 12.0 mph 66 % 0.00 in
06:59 19.3 °F 9.8 °F 30.32 in WNW 7.2 mph 11.5 mph 66 % 0.00 in
07:04 19.3 °F 9.4 °F 30.32 in West 3.0 mph 14.0 mph 65 % 0.00 in
07:09 19.2 °F 9.7 °F 30.32 in West 4.4 mph 9.2 mph 66 % 0.00 in
07:15 19.1 °F 9.6 °F 30.33 in WSW 7.0 mph 12.7 mph 66 % 0.00 in
07:20 19.1 °F 9.6 °F 30.33 in West 7.7 mph 11.5 mph 66 % 0.00 in
07:25 19.1 °F 9.9 °F 30.33 in West 4.1 mph 8.0 mph 67 % 0.00 in
07:30 19.1 °F 9.9 °F 30.33 in West 5.4 mph 11.5 mph 67 % 0.00 in
07:35 19.2 °F 10.0 °F 30.33 in West 4.3 mph 8.1 mph 67 % 0.00 in
07:40 19.2 °F 10.0 °F 30.33 in West 6.0 mph 12.0 mph 67 % 0.00 in
07:45 19.3 °F 10.1 °F 30.33 in SW 5.1 mph 9.2 mph 67 % 0.00 in
07:50 19.3 °F 10.1 °F 30.34 in West 3.8 mph 9.2 mph 67 % 0.00 in
07:55 19.3 °F 9.8 °F 30.35 in West 6.8 mph 14.0 mph 66 % 0.00 in
08:00 19.4 °F 9.9 °F 30.34 in WNW 4.0 mph 10.4 mph 66 % 0.00 in
08:06 19.5 °F 10.0 °F 30.35 in SW 3.3 mph 11.5 mph 66 % 0.00 in
08:11 19.6 °F 10.1 °F 30.35 in WSW 4.7 mph 10.4 mph 66 % 0.00 in
08:16 19.8 °F 10.3 °F 30.36 in NW 3.3 mph 9.2 mph 66 % 0.00 in
08:21 19.9 °F 10.0 °F 30.36 in NW 8.7 mph 11.0 mph 65 % 0.00 in
08:26 20.0 °F 10.1 °F 30.36 in SW 9.6 mph 16.1 mph 65 % 0.00 in
08:31 20.1 °F 10.2 °F 30.37 in West 5.1 mph 10.4 mph 65 % 0.00 in
08:36 20.2 °F 10.3 °F 30.36 in WSW 7.1 mph 12.7 mph 65 % 0.00 in
08:41 20.2 °F 10.3 °F 30.37 in WNW 8.3 mph 12.7 mph 65 % 0.00 in
08:46 20.3 °F 10.4 °F 30.37 in WSW 4.3 mph 9.2 mph 65 % 0.00 in
08:51 20.4 °F 10.5 °F 30.37 in WNW 6.2 mph 11.5 mph 65 % 0.00 in
08:57 20.6 °F 10.7 °F 30.38 in SW 9.2 mph 16.1 mph 65 % 0.00 in
09:02 20.6 °F 10.3 °F 30.38 in West 6.8 mph 12.7 mph 64 % 0.00 in
09:07 20.7 °F 10.8 °F 30.39 in WSW 9.7 mph 15.0 mph 65 % 0.00 in
09:12 20.9 °F 11.0 °F 30.39 in WSW 8.9 mph 16.1 mph 65 % 0.00 in
09:17 20.9 °F 11.0 °F 30.39 in NW 6.2 mph 10.4 mph 65 % 0.00 in
09:22 21.0 °F 11.1 °F 30.40 in WNW 6.4 mph 10.0 mph 65 % 0.00 in
09:27 21.1 °F 11.2 °F 30.41 in West 5.7 mph 8.1 mph 65 % 0.00 in
09:32 21.2 °F 10.9 °F 30.41 in WNW 6.4 mph 11.5 mph 64 % 0.00 in
09:37 21.2 °F 10.6 °F 30.41 in SW 5.8 mph 10.4 mph 63 % 0.00 in
09:42 21.3 °F 10.7 °F 30.41 in SSW 6.3 mph 13.8 mph 63 % 0.00 in
09:48 21.3 °F 11.0 °F 30.41 in WNW 8.7 mph 13.8 mph 64 % 0.00 in
09:53 21.4 °F 11.1 °F 30.41 in West 3.8 mph 10.0 mph 64 % 0.00 in
09:58 21.6 °F 10.9 °F 30.41 in West 6.0 mph 9.2 mph 63 % 0.00 in
10:03 21.8 °F 11.5 °F 30.41 in WSW 3.9 mph 6.9 mph 64 % 0.00 in
10:08 21.9 °F 11.2 °F 30.42 in West 4.6 mph 8.0 mph 63 % 0.00 in
10:13 21.9 °F 10.9 °F 30.42 in WSW 5.0 mph 8.1 mph 62 % 0.00 in
10:18 21.9 °F 10.9 °F 30.42 in WNW 9.1 mph 17.3 mph 62 % 0.00 in
10:23 21.9 °F 10.9 °F 30.42 in West 6.8 mph 10.4 mph 62 % 0.00 in
10:28 21.9 °F 11.2 °F 30.42 in WNW 7.2 mph 10.4 mph 63 % 0.00 in
10:33 21.9 °F 10.9 °F 30.43 in WNW 3.2 mph 4.0 mph 62 % 0.00 in
10:39 21.9 °F 10.9 °F 30.43 in WSW 6.9 mph 11.5 mph 62 % 0.00 in
10:44 21.9 °F 10.9 °F 30.43 in WSW 8.1 mph 11.5 mph 62 % 0.00 in
10:49 22.0 °F 11.0 °F 30.43 in NW 4.9 mph 8.1 mph 62 % 0.00 in
10:54 22.1 °F 11.1 °F 30.43 in WNW 5.7 mph 9.2 mph 62 % 0.00 in
10:59 22.2 °F 11.1 °F 30.43 in WNW 3.5 mph 8.1 mph 62 % 0.00 in
11:09 22.4 °F 11.3 °F 30.43 in SSW 5.5 mph 11.5 mph 62 % 0.00 in
11:14 22.5 °F 11.1 °F 30.42 in West 5.0 mph 8.1 mph 61 % 0.00 in
11:19 22.8 °F 11.3 °F 30.42 in WSW 3.5 mph 10.4 mph 61 % 0.00 in
11:24 23.0 °F 11.1 °F 30.42 in West 5.0 mph 12.0 mph 60 % 0.00 in
11:29 23.2 °F 11.3 °F 30.41 in West 5.0 mph 12.0 mph 60 % 0.00 in
11:34 23.4 °F 11.5 °F 30.41 in West 6.0 mph 10.0 mph 60 % 0.00 in
11:39 23.5 °F 11.6 °F 30.41 in West 5.0 mph 12.0 mph 60 % 0.00 in
11:44 23.6 °F 11.7 °F 30.41 in WNW 6.0 mph 12.0 mph 60 % 0.00 in
11:49 23.6 °F 11.4 °F 30.40 in WNW 2.0 mph 8.0 mph 59 % 0.00 in
11:54 23.8 °F 11.9 °F 30.40 in West 3.0 mph 10.0 mph 60 % 0.00 in
11:59 23.9 °F 11.3 °F 30.40 in West 3.1 mph 8.1 mph 58 % 0.00 in
12:05 24.1 °F 12.2 °F 30.40 in WNW 3.8 mph 12.0 mph 60 % 0.00 in
12:10 24.3 °F 11.6 °F 30.39 in WNW 3.6 mph 9.0 mph 58 % 0.00 in
12:15 24.6 °F 11.9 °F 30.39 in WNW 3.5 mph 5.8 mph 58 % 0.00 in
12:20 25.0 °F 12.3 °F 30.39 in SW 5.2 mph 11.5 mph 58 % 0.00 in
12:25 25.4 °F 12.7 °F 30.39 in NW 4.5 mph 8.0 mph 58 % 0.00 in
12:30 25.8 °F 11.8 °F 30.38 in West 4.1 mph 5.8 mph 55 % 0.00 in
12:35 26.0 °F 12.4 °F 30.39 in West 6.0 mph 6.0 mph 56 % 0.00 in
12:40 26.2 °F 12.6 °F 30.39 in WNW 3.6 mph 5.0 mph 56 % 0.00 in
12:45 26.2 °F 11.8 °F 30.38 in WNW 5.4 mph 8.1 mph 54 % 0.00 in
12:46 26.2 °F 11.4 °F 30.38 in WNW 6.2 mph 9.2 mph 53 % 0.00 in
12:47 26.2 °F 11.4 °F 30.38 in WNW 3.9 mph 9.2 mph 53 % 0.00 in
12:48 26.1 °F 11.7 °F 30.38 in West 4.5 mph 8.0 mph 54 % 0.00 in
12:49 26.1 °F 12.1 °F 30.38 in WSW 5.9 mph 11.0 mph 55 % 0.00 in
12:50 26.1 °F 12.1 °F 30.38 in WSW 3.0 mph 11.5 mph 55 % 0.00 in
12:51 26.1 °F 12.1 °F 30.38 in WNW 2.7 mph 4.6 mph 55 % 0.00 in
12:56 26.0 °F 12.0 °F 30.38 in WNW 3.1 mph 8.1 mph 55 % 0.00 in
13:01 26.1 °F 12.1 °F 30.38 in West 5.4 mph 8.1 mph 55 % 0.00 in
13:06 26.1 °F 12.5 °F 30.38 in South 3.6 mph 5.8 mph 56 % 0.00 in
13:11 26.2 °F 12.2 °F 30.38 in WNW 6.0 mph 7.0 mph 55 % 0.00 in
13:16 26.3 °F 12.7 °F 30.38 in West 5.1 mph 8.1 mph 56 % 0.00 in
13:21 26.5 °F 12.9 °F 30.38 in West 3.5 mph 7.0 mph 56 % 0.00 in
13:26 26.6 °F 12.6 °F 30.38 in SW 3.2 mph 8.1 mph 55 % 0.00 in
13:32 26.7 °F 13.1 °F 30.38 in SW 2.9 mph 5.0 mph 56 % 0.00 in
13:37 26.8 °F 12.4 °F 30.38 in WNW 2.1 mph 6.9 mph 54 % 0.00 in
13:42 26.7 °F 11.8 °F 30.38 in WNW 2.0 mph 4.6 mph 53 % 0.00 in
13:47 26.7 °F 11.8 °F 30.38 in West 3.4 mph 6.9 mph 53 % 0.00 in
13:52 26.6 °F 12.2 °F 30.39 in SSW 1.0 mph 4.6 mph 54 % 0.00 in
13:57 26.6 °F 12.6 °F 30.38 in West 1.9 mph 3.5 mph 55 % 0.00 in
14:02 26.6 °F 12.6 °F 30.38 in WSW 4.4 mph 6.9 mph 55 % 0.00 in
14:07 26.5 °F 12.9 °F 30.39 in West 1.1 mph 3.0 mph 56 % 0.00 in
14:12 26.6 °F 12.6 °F 30.38 in SSW 3.2 mph 6.9 mph 55 % 0.00 in
14:17 26.7 °F 12.7 °F 30.38 in West 5.0 mph 8.1 mph 55 % 0.00 in
14:23 26.6 °F 12.2 °F 30.39 in SW 4.6 mph 8.1 mph 54 % 0.00 in
14:28 26.6 °F 12.6 °F 30.38 in WSW 2.6 mph 5.8 mph 55 % 0.00 in
14:33 26.6 °F 12.2 °F 30.39 in WSW 2.0 mph 4.6 mph 54 % 0.00 in
14:38 26.6 °F 12.2 °F 30.39 in WSW 2.9 mph 6.9 mph 54 % 0.00 in
14:43 26.6 °F 11.7 °F 30.39 in SW 3.4 mph 5.8 mph 53 % 0.00 in
14:48 26.5 °F 12.1 °F 30.39 in SSW 4.8 mph 5.8 mph 54 % 0.00 in
14:53 26.5 °F 12.1 °F 30.39 in SSW 1.9 mph 5.0 mph 54 % 0.00 in
14:58 26.4 °F 11.6 °F 30.39 in SSW 0.8 mph 2.3 mph 53 % 0.00 in
15:03 26.4 °F 11.6 °F 30.39 in SSW 3.7 mph 6.9 mph 53 % 0.00 in
15:08 26.4 °F 11.6 °F 30.39 in West 3.8 mph 6.9 mph 53 % 0.00 in
15:13 26.4 °F 11.6 °F 30.39 in SSW 1.2 mph 5.8 mph 53 % 0.00 in
15:19 26.4 °F 11.6 °F 30.39 in WSW 1.8 mph 2.3 mph 53 % 0.00 in
15:24 26.5 °F 12.1 °F 30.39 in SSW 3.8 mph 6.9 mph 54 % 0.00 in
15:29 26.5 °F 11.7 °F 30.39 in WSW 4.3 mph 6.9 mph 53 % 0.00 in
15:34 26.5 °F 11.7 °F 30.39 in SSW 1.9 mph 4.6 mph 53 % 0.00 in
15:39 26.5 °F 11.2 °F 30.40 in WSW 2.4 mph 4.6 mph 52 % 0.00 in
15:44 26.5 °F 11.2 °F 30.40 in SW 2.4 mph 3.5 mph 52 % 0.00 in
15:49 26.5 °F 11.2 °F 30.39 in SW 3.6 mph 6.9 mph 52 % 0.00 in
15:54 26.5 °F 11.2 °F 30.40 in WSW 0.8 mph 3.5 mph 52 % 0.00 in
15:59 26.5 °F 11.2 °F 30.39 in South 1.8 mph 3.5 mph 52 % 0.00 in
16:04 26.3 °F 11.0 °F 30.39 in SSW 0.8 mph 3.5 mph 52 % 0.00 in
16:12 26.2 °F 10.5 °F 30.39 in SW 2.1 mph 5.0 mph 51 % 0.00 in
16:17 26.1 °F 10.9 °F 30.39 in Calm   2.3 mph 52 % 0.00 in
16:22 26.0 °F 10.8 °F 30.39 in SW 0.7 mph 2.0 mph 52 % 0.00 in
16:27 25.9 °F 10.7 °F 30.38 in SW 0.6 mph 2.3 mph 52 % 0.00 in
16:32 25.8 °F 11.0 °F 30.38 in Calm     53 % 0.00 in
16:37 25.7 °F 10.9 °F 30.38 in Calm     53 % 0.00 in
16:43 25.5 °F 11.1 °F 30.38 in Calm     54 % 0.00 in
16:48 25.4 °F 11.0 °F 30.39 in Calm     54 % 0.00 in
16:53 25.2 °F 10.9 °F 30.39 in Calm     54 % 0.00 in
16:58 25.0 °F 11.1 °F 30.40 in Calm     55 % 0.00 in
17:03 24.8 °F 11.3 °F 30.40 in Calm     56 % 0.00 in
17:08 24.6 °F 11.1 °F 30.40 in Calm     56 % 0.00 in
17:13 24.4 °F 11.3 °F 30.41 in SW 0.2 mph 1.0 mph 57 % 0.00 in
17:18 24.2 °F 11.5 °F 30.41 in SW 0.5 mph 2.3 mph 58 % 0.00 in
17:23 24.1 °F 11.4 °F 30.41 in SW 0.2 mph 2.3 mph 58 % 0.00 in
17:28 23.9 °F 11.3 °F 30.41 in SW 1.8 mph 3.5 mph 58 % 0.00 in
17:34 23.8 °F 11.2 °F 30.40 in SW 0.1 mph 1.2 mph 58 % 0.00 in
17:39 23.6 °F 11.4 °F 30.39 in SW 0.5 mph 2.3 mph 59 % 0.00 in
17:44 23.6 °F 11.7 °F 30.39 in SW 1.0 mph 2.3 mph 60 % 0.00 in
17:49 23.6 °F 11.7 °F 30.40 in SW 1.1 mph 2.3 mph 60 % 0.00 in
17:54 23.5 °F 11.6 °F 30.40 in SW 1.2 mph 3.5 mph 60 % 0.00 in
17:59 23.5 °F 12.0 °F 30.39 in SW 0.4 mph 2.3 mph 61 % 0.00 in
18:04 23.6 °F 12.1 °F 30.39 in SW 0.6 mph 2.3 mph 61 % 0.00 in
18:11 23.6 °F 12.1 °F 30.38 in SW 0.3 mph 2.3 mph 61 % 0.00 in
18:16 23.6 °F 12.1 °F 30.39 in SW 0.9 mph 2.0 mph 61 % 0.00 in
18:21 23.6 °F 12.1 °F 30.40 in Calm   2.0 mph 61 % 0.00 in
18:26 23.7 °F 12.2 °F 30.40 in SW 0.1 mph 2.0 mph 61 % 0.00 in
18:31 23.7 °F 12.2 °F 30.40 in Calm   2.0 mph 61 % 0.00 in
18:36 23.7 °F 12.2 °F 30.39 in SW 0.2 mph 2.0 mph 61 % 0.00 in
18:41 23.7 °F 12.2 °F 30.39 in SW 0.3 mph 2.0 mph 61 % 0.00 in
18:46 23.7 °F 12.2 °F 30.40 in SW 0.8 mph 2.3 mph 61 % 0.00 in
18:51 23.8 °F 12.3 °F 30.40 in SW 0.7 mph 4.0 mph 61 % 0.00 in
18:56 23.8 °F 12.3 °F 30.40 in SW 0.2 mph 4.0 mph 61 % 0.00 in
19:01 23.8 °F 12.7 °F 30.40 in SW 0.4 mph 4.0 mph 62 % 0.00 in
19:06 23.8 °F 12.3 °F 30.40 in WSW 1.7 mph 4.0 mph 61 % 0.00 in
19:18 23.8 °F 12.3 °F 30.40 in SW 3.0 mph 3.5 mph 61 % 0.00 in
19:23 23.8 °F 11.9 °F 30.40 in SW 0.9 mph 3.5 mph 60 % 0.00 in
19:28 23.8 °F 11.9 °F 30.40 in SW 1.3 mph 3.5 mph 60 % 0.00 in
19:33 23.8 °F 11.9 °F 30.40 in SW 2.0 mph 4.0 mph 60 % 0.00 in
19:38 23.9 °F 11.6 °F 30.40 in WSW 3.6 mph 6.0 mph 59 % 0.00 in
19:43 23.9 °F 11.6 °F 30.40 in SW 0.5 mph 6.0 mph 59 % 0.00 in
19:49 24.0 °F 11.7 °F 30.41 in SW 3.5 mph 3.5 mph 59 % 0.00 in
19:54 24.1 °F 11.8 °F 30.41 in SSW 1.9 mph 7.0 mph 59 % 0.00 in
19:59 24.2 °F 11.5 °F 30.40 in SSW 2.3 mph 7.0 mph 58 % 0.00 in
20:04 24.3 °F 11.6 °F 30.40 in SW 2.7 mph 7.0 mph 58 % 0.00 in
20:09 24.4 °F 11.3 °F 30.40 in West 3.9 mph 7.0 mph 57 % 0.00 in
20:14 24.5 °F 11.0 °F 30.40 in SW 3.0 mph 7.0 mph 56 % 0.00 in
20:19 24.6 °F 11.1 °F 30.40 in WSW 1.0 mph 5.0 mph 56 % 0.00 in
20:24 24.7 °F 11.2 °F 30.39 in WSW 2.0 mph 5.0 mph 56 % 0.00 in
20:29 24.8 °F 11.3 °F 30.39 in WSW 1.0 mph 6.0 mph 56 % 0.00 in
20:34 24.8 °F 11.3 °F 30.39 in SW 2.0 mph 5.0 mph 56 % 0.00 in
20:39 24.9 °F 11.8 °F 30.39 in SW 2.0 mph 5.0 mph 57 % 0.00 in
20:44 24.9 °F 11.4 °F 30.38 in SW 2.0 mph 5.0 mph 56 % 0.00 in
20:49 24.9 °F 11.8 °F 30.38 in SW 0.4 mph 5.0 mph 57 % 0.00 in
20:54 25.0 °F 11.9 °F 30.38 in Calm   8.0 mph 57 % 0.00 in
21:00 25.1 °F 12.0 °F 30.38 in SW 0.2 mph 8.1 mph 57 % 0.00 in
21:05 25.1 °F 12.0 °F 30.37 in SW 0.6 mph 8.1 mph 57 % 0.00 in
21:10 25.1 °F 12.0 °F 30.37 in SW 0.4 mph 8.1 mph 57 % 0.00 in
21:15 25.1 °F 12.0 °F 30.37 in SW 0.4 mph 8.1 mph 57 % 0.00 in
21:20 25.1 °F 12.0 °F 30.37 in SW 0.4 mph 8.1 mph 57 % 0.00 in
21:25 25.1 °F 12.0 °F 30.36 in SW 0.4 mph 8.1 mph 57 % 0.00 in
21:30 25.1 °F 12.4 °F 30.37 in SW 0.5 mph 8.1 mph 58 % 0.00 in
21:35 25.1 °F 12.4 °F 30.37 in West 1.3 mph 8.1 mph 58 % 0.00 in
21:40 25.1 °F 12.4 °F 30.37 in WSW 0.6 mph 8.1 mph 58 % 0.00 in
21:45 25.1 °F 12.4 °F 30.37 in WSW 0.4 mph 8.1 mph 58 % 0.00 in
21:50 25.1 °F 12.4 °F 30.37 in WSW 0.7 mph 8.1 mph 58 % 0.00 in
21:56 25.2 °F 12.5 °F 30.37 in WSW 1.2 mph 8.1 mph 58 % 0.00 in
22:01 25.2 °F 12.5 °F 30.37 in WSW 0.9 mph 8.1 mph 58 % 0.00 in
22:06 25.3 °F 12.6 °F 30.37 in Calm   8.1 mph 58 % 0.00 in
22:11 25.3 °F 12.6 °F 30.37 in WSW 0.8 mph 8.1 mph 58 % 0.00 in
22:16 25.3 °F 12.6 °F 30.36 in Calm   8.1 mph 58 % 0.00 in
22:21 25.3 °F 12.6 °F 30.36 in WSW 0.1 mph 8.1 mph 58 % 0.00 in
22:26 25.4 °F 12.7 °F 30.36 in WSW 0.9 mph 8.1 mph 58 % 0.00 in
22:31 25.4 °F 12.7 °F 30.36 in WSW 1.0 mph 8.1 mph 58 % 0.00 in
22:36 25.5 °F 12.8 °F 30.36 in WSW 0.8 mph 8.1 mph 58 % 0.00 in
22:41 25.6 °F 12.5 °F 30.37 in SW 1.1 mph 8.1 mph 57 % 0.00 in
22:46 25.7 °F 12.6 °F 30.37 in WSW 3.7 mph 8.1 mph 57 % 0.00 in
22:51 25.8 °F 12.2 °F 30.37 in WSW 4.4 mph 9.2 mph 56 % 0.00 in
22:56 25.9 °F 12.3 °F 30.37 in WSW 1.0 mph 9.2 mph 56 % 0.00 in
23:01 26.0 °F 12.4 °F 30.37 in SSW 1.5 mph 9.2 mph 56 % 0.00 in
23:07 26.0 °F 12.4 °F 30.37 in WSW 2.2 mph 9.2 mph 56 % 0.00 in
23:12 26.1 °F 12.5 °F 30.36 in WSW 0.8 mph 9.2 mph 56 % 0.00 in
23:16 26.2 °F 12.2 °F 30.35 in West 2.3 mph 9.2 mph 55 % 0.00 in
23:22 26.2 °F 12.6 °F 30.35 in SW 2.1 mph 9.2 mph 56 % 0.00 in
23:27 26.3 °F 12.3 °F 30.35 in WSW 1.3 mph 9.2 mph 55 % 0.00 in
23:32 26.4 °F 12.4 °F 30.34 in WSW 2.3 mph 9.2 mph 55 % 0.00 in
23:37 26.5 °F 12.5 °F 30.34 in WSW 0.8 mph 9.2 mph 55 % 0.00 in
23:42 26.5 °F 12.5 °F 30.34 in SSW 3.0 mph 9.2 mph 55 % 0.00 in
23:47 26.6 °F 12.2 °F 30.34 in SW 1.5 mph 9.2 mph 54 % 0.00 in
23:52 26.7 °F 12.3 °F 30.34 in SW 1.8 mph 9.2 mph 54 % 0.00 in
23:57 26.7 °F 12.3 °F 30.34 in SW 1.0 mph 9.2 mph 54 % 0.00 in
Crab Meadow Weather
Compliments of Weather Underground - 3 mb

Script developed by  Jim McMurry - jmcmurry@mwt.net Adapted for the template by  Wim van der Kuil - Leuven-Template.eu

Extremes: In Wyndham, Australia, the temperature reached 90 degrees F for 333 days in 1946.